Time,TemperatureF,DewpointF,PressureIn,WindDirection,WindDirectionDegrees,WindSpeedMPH,WindSpeedGustMPH,Humidity,HourlyPrecipIn,Conditions,Clouds,dailyrainin,SoftwareType,DateUTC
2013-09-08 00:00:00,63.7,62.0,29.97,WNW,296,0.0,-999.0,95,-99.99,,,0.00,weatherlink.com 1.10,2013-09-08 04:00:00,
2013-09-08 00:15:00,63.3,62.0,29.97,WNW,296,0.0,-999.0,95,-99.99,,,0.00,weatherlink.com 1.10,2013-09-08 04:15:00,
2013-09-08 00:30:00,63.2,62.0,29.97,WNW,296,0.0,-999.0,95,-99.99,,,0.00,weatherlink.com 1.10,2013-09-08 04:30:00,
2013-09-08 00:45:00,63.1,62.0,29.97,WNW,296,0.0,-999.0,95,-99.99,,,0.00,weatherlink.com 1.10,2013-09-08 04:45:00,
2013-09-08 01:00:00,62.9,62.0,29.97,WNW,286,0.0,-999.0,96,-99.99,,,0.00,weatherlink.com 1.10,2013-09-08 05:00:00,
2013-09-08 01:15:00,62.5,61.0,29.97,WNW,286,0.0,-999.0,95,-99.99,,,0.00,weatherlink.com 1.10,2013-09-08 05:15:00,
2013-09-08 01:30:00,61.7,60.0,29.97,WNW,286,0.0,-999.0,95,-99.99,,,0.00,weatherlink.com 1.10,2013-09-08 05:30:00,
2013-09-08 01:45:00,61.3,60.0,29.97,WNW,286,0.0,-999.0,95,-99.99,,,0.00,weatherlink.com 1.10,2013-09-08 05:45:00,
2013-09-08 02:00:00,61.0,60.0,29.97,WNW,286,0.0,-999.0,95,-99.99,,,0.00,weatherlink.com 1.10,2013-09-08 06:00:00,
2013-09-08 02:15:00,60.6,60.0,29.96,WNW,286,0.0,-999.0,96,-99.99,,,0.00,weatherlink.com 1.10,2013-09-08 06:15:00,
2013-09-08 02:30:00,60.0,59.0,29.96,West,277,1.0,-999.0,95,-99.99,,,0.00,weatherlink.com 1.10,2013-09-08 06:30:00,
2013-09-08 02:45:00,59.7,59.0,29.96,WNW,297,0.0,-999.0,96,-99.99,,,0.00,weatherlink.com 1.10,2013-09-08 06:45:00,
2013-09-08 03:00:00,59.5,58.0,29.96,WNW,297,0.0,-999.0,95,-99.99,,,0.00,weatherlink.com 1.10,2013-09-08 07:00:00,
2013-09-08 03:15:00,58.9,58.0,29.96,WNW,297,0.0,-999.0,95,-99.99,,,0.00,weatherlink.com 1.10,2013-09-08 07:15:00,
2013-09-08 03:30:00,58.7,58.0,29.95,WNW,296,1.0,-999.0,96,-99.99,,,0.00,weatherlink.com 1.10,2013-09-08 07:30:00,
2013-09-08 03:45:00,58.4,57.0,29.95,NW,308,0.0,-999.0,96,-99.99,,,0.00,weatherlink.com 1.10,2013-09-08 07:45:00,
2013-09-08 04:00:00,58.4,57.0,29.95,East,80,0.0,-999.0,96,-99.99,,,0.00,weatherlink.com 1.10,2013-09-08 08:00:00,
2013-09-08 04:15:00,58.3,57.0,29.95,East,80,0.0,-999.0,96,-99.99,,,0.00,weatherlink.com 1.10,2013-09-08 08:15:00,
2013-09-08 04:30:00,58.5,57.0,29.95,East,80,0.0,-999.0,96,-99.99,,,0.00,weatherlink.com 1.10,2013-09-08 08:30:00,
2013-09-08 04:45:00,58.5,57.0,29.95,East,80,0.0,-999.0,96,-99.99,,,0.00,weatherlink.com 1.10,2013-09-08 08:45:00,
2013-09-08 05:00:00,58.2,57.0,29.95,East,80,0.0,-999.0,96,-99.99,,,0.00,weatherlink.com 1.10,2013-09-08 09:00:00,
2013-09-08 05:15:00,58.3,57.0,29.95,East,80,0.0,-999.0,96,-99.99,,,0.00,weatherlink.com 1.10,2013-09-08 09:15:00,
2013-09-08 05:30:00,58.4,57.0,29.95,East,80,0.0,-999.0,96,-99.99,,,0.00,weatherlink.com 1.10,2013-09-08 09:30:00,
2013-09-08 05:45:00,58.4,57.0,29.95,East,80,0.0,-999.0,96,-99.99,,,0.00,weatherlink.com 1.10,2013-09-08 09:45:00,
2013-09-08 06:00:00,58.4,57.0,29.95,East,80,0.0,-999.0,96,-99.99,,,0.00,weatherlink.com 1.10,2013-09-08 10:00:00,
2013-09-08 06:15:00,58.4,57.0,29.95,East,79,0.0,-999.0,96,-99.99,,,0.00,weatherlink.com 1.10,2013-09-08 10:15:00,
2013-09-08 06:30:00,58.4,57.0,29.95,East,79,0.0,-999.0,96,-99.99,,,0.00,weatherlink.com 1.10,2013-09-08 10:30:00,
2013-09-08 06:45:00,58.3,57.0,29.96,East,79,0.0,-999.0,96,-99.99,,,0.00,weatherlink.com 1.10,2013-09-08 10:45:00,
2013-09-08 07:00:00,58.7,58.0,29.96,ENE,73,0.0,-999.0,97,-99.99,,,0.00,weatherlink.com 1.10,2013-09-08 11:00:00,
2013-09-08 07:15:00,58.9,58.0,29.96,ENE,73,0.0,-999.0,97,-99.99,,,0.00,weatherlink.com 1.10,2013-09-08 11:15:00,
2013-09-08 07:30:00,59.0,58.0,29.96,NNE,31,0.0,-999.0,96,-99.99,,,0.00,weatherlink.com 1.10,2013-09-08 11:30:00,
2013-09-08 07:45:00,59.6,59.0,29.96,NNE,31,0.0,-999.0,97,-99.99,,,0.00,weatherlink.com 1.10,2013-09-08 11:45:00,
2013-09-08 08:00:00,60.2,59.0,29.96,NNE,31,0.0,-999.0,97,-99.99,,,0.00,weatherlink.com 1.10,2013-09-08 12:00:00,
2013-09-08 08:15:00,61.3,61.0,29.96,NNE,31,0.0,-999.0,97,-99.99,,,0.00,weatherlink.com 1.10,2013-09-08 12:15:00,
2013-09-08 08:30:00,62.9,62.0,29.97,NE,36,0.0,-999.0,97,-99.99,,,0.00,weatherlink.com 1.10,2013-09-08 12:30:00,
2013-09-08 08:45:00,64.7,64.0,29.96,ENE,77,0.0,-999.0,97,-99.99,,,0.00,weatherlink.com 1.10,2013-09-08 12:45:00,
2013-09-08 09:00:00,66.2,64.1,29.96,NE,45,0.0,1.0,93,0.00,,,0.00,VWS V14.01,2013-09-08 13:00:00,
2013-09-08 09:01:00,66.3,64.0,29.96,ENE,77,0.0,-999.0,93,-99.99,,,0.00,weatherlink.com 1.10,2013-09-08 13:01:00,
2013-09-08 09:16:00,67.6,65.0,29.96,East,79,0.0,-999.0,91,-99.99,,,0.00,weatherlink.com 1.10,2013-09-08 13:16:00,
2013-09-08 09:30:00,68.4,66.0,29.97,East,90,0.0,1.0,92,0.00,,,0.00,VWS V14.01,2013-09-08 13:30:00,
2013-09-08 09:31:00,68.4,66.0,29.97,East,79,0.0,-999.0,92,-99.99,,,0.00,weatherlink.com 1.10,2013-09-08 13:31:00,
2013-09-08 09:46:00,68.9,65.0,29.97,East,79,0.0,-999.0,87,-99.99,,,0.00,weatherlink.com 1.10,2013-09-08 13:46:00,
2013-09-08 10:00:00,69.9,65.5,29.97,SSE,158,0.0,1.0,86,0.00,,,0.00,VWS V14.01,2013-09-08 14:00:00,
2013-09-08 10:01:00,70.0,65.0,29.97,South,181,2.0,-999.0,85,-99.99,,,0.00,weatherlink.com 1.10,2013-09-08 14:01:00,
2013-09-08 10:16:00,70.8,66.0,29.96,South,173,0.0,-999.0,84,-99.99,,,0.00,weatherlink.com 1.10,2013-09-08 14:16:00,
2013-09-08 10:30:00,72.2,66.8,29.96,South,180,0.0,3.0,83,0.00,,,0.00,VWS V14.01,2013-09-08 14:30:00,
2013-09-08 10:31:00,72.4,67.0,29.96,ESE,122,0.0,-999.0,83,-99.99,,,0.00,weatherlink.com 1.10,2013-09-08 14:31:00,
2013-09-08 10:46:00,74.0,68.0,29.96,ESE,117,0.0,-999.0,81,-99.99,,,0.00,weatherlink.com 1.10,2013-09-08 14:46:00,
2013-09-08 11:00:00,74.9,67.9,29.96,South,180,1.0,6.0,79,0.00,,,0.00,VWS V14.01,2013-09-08 15:00:00,
2013-09-08 11:01:00,75.0,68.0,29.96,South,190,0.0,-999.0,79,-99.99,,,0.00,weatherlink.com 1.10,2013-09-08 15:01:00,
2013-09-08 11:16:00,76.4,70.0,29.96,East,95,0.0,-999.0,81,-99.99,,,0.00,weatherlink.com 1.10,2013-09-08 15:16:00,
2013-09-08 11:30:00,77.6,67.5,29.96,WNW,292,1.0,7.0,71,0.00,,,0.00,VWS V14.01,2013-09-08 15:30:00,
2013-09-08 11:31:00,77.7,69.0,29.96,ENE,76,1.0,-999.0,74,-99.99,,,0.00,weatherlink.com 1.10,2013-09-08 15:31:00,
2013-09-08 11:46:00,78.9,69.0,29.95,East,80,1.0,-999.0,71,-99.99,,,0.00,weatherlink.com 1.10,2013-09-08 15:46:00,
2013-09-08 12:00:00,79.3,67.8,29.95,East,90,2.0,9.0,68,0.00,,,0.00,VWS V14.01,2013-09-08 16:00:00,
2013-09-08 12:01:00,79.2,68.0,29.95,NNW,340,5.0,-999.0,68,-99.99,,,0.00,weatherlink.com 1.10,2013-09-08 16:01:00,
2013-09-08 12:16:00,79.2,68.0,29.95,NNE,26,1.0,-999.0,69,-99.99,,,0.00,weatherlink.com 1.10,2013-09-08 16:16:00,
2013-09-08 12:30:00,79.8,68.3,29.95,NW,315,3.0,9.0,68,0.00,,,0.00,VWS V14.01,2013-09-08 16:30:00,
2013-09-08 12:31:00,79.9,68.0,29.95,WNW,293,3.0,-999.0,68,-99.99,,,0.00,weatherlink.com 1.10,2013-09-08 16:31:00,
2013-09-08 12:46:00,80.3,68.0,29.94,NNW,331,2.0,-999.0,67,-99.99,,,0.00,weatherlink.com 1.10,2013-09-08 16:46:00,
2013-09-08 13:00:00,80.9,68.0,29.94,North,0,2.0,10.0,65,0.00,,,0.00,VWS V14.01,2013-09-08 17:00:00,
2013-09-08 13:01:00,80.9,68.0,29.94,West,277,3.0,-999.0,65,-99.99,,,0.00,weatherlink.com 1.10,2013-09-08 17:01:00,
2013-09-08 13:16:00,81.5,69.0,29.93,NW,321,0.0,-999.0,66,-99.99,,,0.00,weatherlink.com 1.10,2013-09-08 17:16:00,
2013-09-08 13:30:00,82.2,68.8,29.93,West,270,2.0,8.0,64,0.00,,,0.00,VWS V14.01,2013-09-08 17:30:00,
2013-09-08 13:31:00,82.5,70.0,29.93,East,80,0.0,-999.0,66,-99.99,,,0.00,weatherlink.com 1.10,2013-09-08 17:31:00,
2013-09-08 13:46:00,83.1,69.0,29.93,ESE,123,0.0,-999.0,63,-99.99,,,0.00,weatherlink.com 1.10,2013-09-08 17:46:00,
2013-09-08 14:00:00,83.3,68.5,29.93,SE,135,0.0,5.0,61,0.00,,,0.00,VWS V14.01,2013-09-08 18:00:00,
2013-09-08 14:30:00,82.2,68.8,29.93,West,270,2.0,8.0,64,0.00,,CLR,0.00,VWS V14.01,2013-09-08 18:30:00,
2013-09-08 14:38:00,83.4,68.0,29.93,East,96,0.0,-999.0,61,-99.99,,,0.00,weatherlink.com 1.10,2013-09-08 18:38:00,
2013-09-08 14:50:00,83.3,68.5,29.93,SE,135,0.0,5.0,61,0.00,,,0.00,VWS V14.01,2013-09-08 18:50:00,
2013-09-08 14:55:00,83.9,69.5,29.92,NNE,16,0.0,1.0,62,2.10,,BKN075,0.00,VWS V14.01,2013-09-08 18:55:00,
2013-09-08 15:00:00,84.6,69.2,29.92,NNE,33,0.0,2.0,60,2.10,,BKN075,0.00,VWS V14.01,2013-09-08 19:00:00,
2013-09-08 15:05:00,84.8,69.4,29.92,NW,325,0.0,4.0,60,2.10,,BKN075,0.00,VWS V14.01,2013-09-08 19:05:00,
2013-09-08 15:10:00,85.1,68.2,29.92,West,269,0.0,4.0,57,2.10,,BKN075,0.00,VWS V14.01,2013-09-08 19:10:00,
2013-09-08 15:15:00,85.3,68.3,29.92,East,79,0.0,4.0,57,2.10,,BKN075,0.00,VWS V14.01,2013-09-08 19:15:00,
2013-09-08 15:20:00,85.4,69.0,29.92,ENE,67,0.0,4.0,58,2.10,,BKN075,0.00,VWS V14.01,2013-09-08 19:20:00,
2013-09-08 15:25:00,85.5,68.5,29.92,ENE,69,0.0,4.0,57,2.10,,BKN075,0.00,VWS V14.01,2013-09-08 19:25:00,
2013-09-08 15:30:00,85.5,67.5,29.92,SE,126,0.0,1.0,55,0.00,,BKN075,0.00,VWS V14.01,2013-09-08 19:30:00,
2013-09-08 15:35:00,85.4,68.4,29.92,SE,126,0.0,1.0,57,0.00,,BKN075,0.00,VWS V14.01,2013-09-08 19:35:00,
2013-09-08 15:40:00,85.4,69.9,29.91,SE,126,0.0,1.0,60,0.00,,BKN085,0.00,VWS V14.01,2013-09-08 19:40:00,
2013-09-08 15:45:00,85.3,68.9,29.91,ESE,122,0.0,1.0,58,0.00,,BKN085,0.00,VWS V14.01,2013-09-08 19:45:00,
2013-09-08 15:50:00,85.2,70.2,29.91,ESE,122,0.0,1.0,61,0.00,,BKN085,0.00,VWS V14.01,2013-09-08 19:50:00,
2013-09-08 15:55:00,84.9,68.0,29.91,ESE,122,0.0,1.0,57,0.00,,BKN085,0.00,VWS V14.01,2013-09-08 19:55:00,
2013-09-08 16:00:00,84.6,69.2,29.91,ESE,122,0.0,0.0,60,0.00,,BKN085,0.00,VWS V14.01,2013-09-08 20:00:00,
2013-09-08 16:05:00,84.5,69.6,29.91,ESE,117,0.0,0.0,61,0.00,,BKN085,0.00,VWS V14.01,2013-09-08 20:05:00,
2013-09-08 16:10:00,84.5,67.6,29.91,ESE,117,0.0,0.0,57,0.00,,BKN085,0.00,VWS V14.01,2013-09-08 20:10:00,
2013-09-08 16:15:00,84.5,68.1,29.91,ESE,117,0.0,1.0,58,0.00,,BKN085,0.00,VWS V14.01,2013-09-08 20:15:00,
2013-09-08 16:20:00,84.7,69.3,29.91,SSE,147,0.0,3.0,60,0.00,,BKN085,0.00,VWS V14.01,2013-09-08 20:20:00,
2013-09-08 16:25:00,85.0,70.1,29.91,SSE,148,0.0,3.0,61,0.00,,BKN085,0.00,VWS V14.01,2013-09-08 20:25:00,
2013-09-08 16:30:00,85.2,70.2,29.91,South,183,0.0,0.0,61,0.00,,BKN085,0.00,VWS V14.01,2013-09-08 20:30:00,
2013-09-08 16:35:00,84.9,69.5,29.91,SE,132,5.0,5.0,60,0.00,,BKN085,0.00,VWS V14.01,2013-09-08 20:35:00,
2013-09-08 16:40:00,84.4,70.0,29.90,South,172,0.0,5.0,62,0.00,,BKN090,0.00,VWS V14.01,2013-09-08 20:40:00,
2013-09-08 16:44:00,83.9,69.5,29.91,SE,129,1.0,5.0,62,0.00,,BKN090,0.00,VWS V14.01,2013-09-08 20:44:00,
2013-09-08 16:49:00,83.6,69.2,29.91,South,187,0.0,5.0,62,0.00,,BKN090,0.00,VWS V14.01,2013-09-08 20:49:00,
2013-09-08 16:54:00,83.4,69.9,29.91,SSE,165,0.0,5.0,64,0.00,,BKN090,0.00,VWS V14.01,2013-09-08 20:54:00,
2013-09-08 16:59:00,83.4,70.4,29.91,SSE,154,0.0,0.0,65,0.00,,BKN090,0.00,VWS V14.01,2013-09-08 20:59:00,
2013-09-08 17:00:00,83.4,70.4,29.91,SSE,154,0.0,5.0,65,0.00,,BKN038,0.00,VWS V14.01,2013-09-08 21:00:00,
2013-09-08 17:04:00,83.2,69.8,29.91,SSE,155,0.0,2.0,64,0.00,,BKN090,0.00,VWS V14.01,2013-09-08 21:04:00,
2013-09-08 17:09:00,83.0,69.6,29.91,SE,146,0.0,2.0,64,0.00,,BKN090,0.00,VWS V14.01,2013-09-08 21:09:00,
2013-09-08 17:14:00,82.9,70.4,29.91,SE,146,0.0,2.0,66,0.00,,BKN090,0.00,VWS V14.01,2013-09-08 21:14:00,
2013-09-08 17:19:00,82.8,68.9,29.91,South,174,0.0,3.0,63,0.00,,BKN090,0.00,VWS V14.01,2013-09-08 21:19:00,
2013-09-08 17:24:00,82.6,69.2,29.91,South,174,0.0,3.0,64,0.00,,BKN090,0.00,VWS V14.01,2013-09-08 21:24:00,
2013-09-08 17:29:00,82.4,69.0,29.91,South,170,0.0,0.0,64,0.00,,BKN090,0.00,VWS V14.01,2013-09-08 21:29:00,
2013-09-08 17:30:00,82.4,69.0,29.91,South,170,0.0,3.0,64,0.00,,BKN038,0.00,VWS V14.01,2013-09-08 21:30:00,
2013-09-08 17:34:00,82.1,69.2,29.90,South,169,0.0,1.0,65,0.00,,BKN090,0.00,VWS V14.01,2013-09-08 21:34:00,
2013-09-08 17:39:00,81.8,69.8,29.91,SSW,195,0.0,3.0,67,0.00,,BKN100,0.00,VWS V14.01,2013-09-08 21:39:00,
2013-09-08 17:44:00,81.7,71.4,29.90,SE,144,0.0,3.0,71,0.00,,BKN100,0.00,VWS V14.01,2013-09-08 21:44:00,
2013-09-08 17:49:00,81.9,71.2,29.90,South,175,0.0,3.0,70,0.00,,BKN100,0.00,VWS V14.01,2013-09-08 21:49:00,
2013-09-08 17:54:00,82.1,71.3,29.91,South,174,0.0,3.0,70,0.00,,BKN100,0.00,VWS V14.01,2013-09-08 21:54:00,
2013-09-08 17:59:00,82.4,71.6,29.91,South,173,0.0,3.0,70,0.00,,BKN100,0.00,VWS V14.01,2013-09-08 21:59:00,
2013-09-08 18:00:00,83.4,70.4,29.91,SSE,154,0.0,5.0,65,0.00,,CLR,0.00,VWS V14.01,2013-09-08 22:00:00,
2013-09-08 18:04:00,82.6,71.4,29.91,SSE,165,0.0,0.0,69,0.00,,BKN100,0.00,VWS V14.01,2013-09-08 22:04:00,
2013-09-08 18:09:00,82.8,71.6,29.91,ESE,118,0.0,1.0,69,0.00,,BKN100,0.00,VWS V14.01,2013-09-08 22:09:00,
2013-09-08 18:14:00,82.8,71.6,29.91,ESE,118,0.0,1.0,69,0.00,,BKN100,0.00,VWS V14.01,2013-09-08 22:14:00,
2013-09-08 18:19:00,82.5,71.3,29.91,ESE,118,0.0,1.0,69,0.00,,BKN100,0.00,VWS V14.01,2013-09-08 22:19:00,
2013-09-08 18:24:00,82.2,71.4,29.92,ESE,118,0.0,1.0,70,0.00,,BKN100,0.00,VWS V14.01,2013-09-08 22:24:00,
2013-09-08 18:29:00,81.9,72.4,29.92,ESE,118,0.0,1.0,73,0.00,,BKN100,0.00,VWS V14.01,2013-09-08 22:29:00,
2013-09-08 18:30:00,81.9,72.4,29.92,ESE,118,0.0,1.0,73,0.00,,BKN038,0.00,VWS V14.01,2013-09-08 22:30:00,
2013-09-08 18:34:00,81.6,72.1,29.92,ESE,118,0.0,0.0,73,0.00,,BKN100,0.00,VWS V14.01,2013-09-08 22:34:00,
2013-09-08 18:39:00,81.3,73.0,29.92,ESE,118,0.0,0.0,76,0.00,,SCT100,0.00,VWS V14.01,2013-09-08 22:39:00,
2013-09-08 18:44:00,80.9,73.8,29.92,ESE,118,0.0,0.0,79,0.00,,SCT100,0.00,VWS V14.01,2013-09-08 22:44:00,
2013-09-08 18:49:00,80.3,72.4,29.92,ESE,118,0.0,0.0,77,0.00,,SCT100,0.00,VWS V14.01,2013-09-08 22:49:00,
2013-09-08 18:54:00,79.7,72.2,29.92,ESE,118,0.0,0.0,78,0.00,,SCT100,0.00,VWS V14.01,2013-09-08 22:54:00,
2013-09-08 18:59:00,79.3,71.8,29.92,ESE,118,0.0,0.0,78,0.00,,SCT100,0.00,VWS V14.01,2013-09-08 22:59:00,
2013-09-08 19:00:00,79.3,71.8,29.92,ESE,118,0.0,0.0,78,0.00,,BKN038,0.00,VWS V14.01,2013-09-08 23:00:00,
2013-09-08 19:04:00,78.9,72.6,29.92,ESE,118,0.0,0.0,81,0.00,,SCT100,0.00,VWS V14.01,2013-09-08 23:04:00,
2013-09-08 19:09:00,78.6,72.3,29.92,ESE,118,0.0,0.0,81,0.00,,SCT100,0.00,VWS V14.01,2013-09-08 23:09:00,
2013-09-08 19:14:00,78.2,73.0,29.92,ESE,118,0.0,1.0,84,0.00,,SCT100,0.00,VWS V14.01,2013-09-08 23:14:00,
2013-09-08 19:19:00,77.8,72.9,29.92,SSE,156,0.0,1.0,85,0.00,,SCT100,0.00,VWS V14.01,2013-09-08 23:19:00,
2013-09-08 19:24:00,77.3,72.4,29.92,SSE,156,0.0,1.0,85,0.00,,SCT100,0.00,VWS V14.01,2013-09-08 23:24:00,
2013-09-08 19:29:00,76.9,72.4,29.92,SSE,156,0.0,1.0,86,0.00,,SCT100,0.00,VWS V14.01,2013-09-08 23:29:00,
2013-09-08 19:30:00,76.9,72.4,29.92,SSE,156,0.0,1.0,86,0.00,,BKN038,0.00,VWS V14.01,2013-09-08 23:30:00,
2013-09-08 19:34:00,76.4,72.2,29.92,SSE,156,0.0,0.0,87,0.00,,SCT100,0.00,VWS V14.01,2013-09-08 23:34:00,
2013-09-08 19:39:00,76.0,72.2,29.92,SSE,156,0.0,0.0,88,0.00,,SCT090,0.00,VWS V14.01,2013-09-08 23:39:00,
2013-09-08 19:44:00,75.6,72.1,29.92,SW,216,0.0,0.0,89,0.00,,SCT090,0.00,VWS V14.01,2013-09-08 23:44:00,
2013-09-08 19:49:00,75.2,71.7,29.92,SW,223,0.0,1.0,89,0.00,,SCT090,0.00,VWS V14.01,2013-09-08 23:49:00,
2013-09-08 19:54:00,74.9,72.1,29.92,SW,227,0.0,1.0,91,0.00,,SCT090,0.00,VWS V14.01,2013-09-08 23:54:00,
2013-09-08 19:59:00,74.6,71.8,29.92,SW,228,0.0,1.0,91,0.00,,SCT090,0.00,VWS V14.01,2013-09-08 23:59:00,
2013-09-08 20:00:00,79.3,71.8,29.92,ESE,118,0.0,0.0,78,0.00,,CLR,0.00,VWS V14.01,2013-09-09 00:00:00,
2013-09-08 20:04:00,74.3,71.5,29.93,SW,228,0.0,0.0,91,0.00,,SCT090,0.00,VWS V14.01,2013-09-09 00:04:00,
2013-09-08 20:09:00,74.1,71.6,29.93,SW,228,0.0,0.0,92,0.00,,FEW060,0.00,VWS V14.01,2013-09-09 00:09:00,
2013-09-08 20:14:00,73.8,71.3,29.93,SW,229,0.0,0.0,92,0.00,,FEW060,0.00,VWS V14.01,2013-09-09 00:14:00,
2013-09-08 20:19:00,73.6,71.5,29.93,West,275,0.0,0.0,93,0.00,,FEW060,0.00,VWS V14.01,2013-09-09 00:19:00,
2013-09-08 20:24:00,73.4,71.3,29.93,West,275,0.0,0.0,93,0.00,,FEW060,0.00,VWS V14.01,2013-09-09 00:24:00,
2013-09-08 20:29:00,73.3,71.2,29.93,West,275,0.0,0.0,93,0.00,,FEW060,0.00,VWS V14.01,2013-09-09 00:29:00,
2013-09-08 20:30:00,73.3,71.2,29.93,West,275,0.0,0.0,93,0.00,,BKN038,0.00,VWS V14.01,2013-09-09 00:30:00,
2013-09-08 20:34:00,73.2,71.1,29.94,West,275,0.0,0.0,93,0.00,,FEW060,0.00,VWS V14.01,2013-09-09 00:34:00,
2013-09-08 20:39:00,73.1,71.0,29.94,West,275,0.0,0.0,93,0.00,,FEW060,0.00,VWS V14.01,2013-09-09 00:39:00,
2013-09-08 20:44:00,72.9,71.1,29.94,West,275,0.0,0.0,94,0.00,,FEW060,0.00,VWS V14.01,2013-09-09 00:44:00,
2013-09-08 20:49:00,72.8,70.7,29.94,West,275,0.0,0.0,93,0.00,,FEW060,0.00,VWS V14.01,2013-09-09 00:49:00,
2013-09-08 20:54:00,72.6,70.5,29.94,West,275,0.0,0.0,93,0.00,,FEW060,0.00,VWS V14.01,2013-09-09 00:54:00,
2013-09-08 20:59:00,72.4,70.3,29.95,West,275,0.0,0.0,93,0.00,,FEW060,0.00,VWS V14.01,2013-09-09 00:59:00,
2013-09-08 21:00:00,72.4,70.3,29.95,West,275,0.0,0.0,93,0.00,,BKN038,0.00,VWS V14.01,2013-09-09 01:00:00,
2013-09-08 21:04:00,72.3,70.5,29.95,West,275,0.0,0.0,94,0.00,,FEW060,0.00,VWS V14.01,2013-09-09 01:04:00,
2013-09-08 21:09:00,72.2,70.4,29.95,West,275,0.0,0.0,94,0.00,,FEW060,0.00,VWS V14.01,2013-09-09 01:09:00,
2013-09-08 21:14:00,71.9,70.1,29.95,West,275,0.0,0.0,94,0.00,,FEW060,0.00,VWS V14.01,2013-09-09 01:14:00,
2013-09-08 21:19:00,71.7,69.9,29.95,West,275,0.0,0.0,94,0.00,,FEW060,0.00,VWS V14.01,2013-09-09 01:19:00,
2013-09-08 21:24:00,71.5,69.7,29.95,WNW,287,0.0,0.0,94,0.00,,FEW060,0.00,VWS V14.01,2013-09-09 01:24:00,
2013-09-08 21:29:00,71.5,69.7,29.96,WNW,287,0.0,0.0,94,0.00,,FEW060,0.00,VWS V14.01,2013-09-09 01:29:00,
2013-09-08 21:30:00,71.5,69.7,29.96,WNW,287,0.0,0.0,94,0.00,,BKN038,0.00,VWS V14.01,2013-09-09 01:30:00,
2013-09-08 21:34:00,71.3,69.5,29.96,WNW,287,0.0,0.0,94,0.00,,FEW060,0.00,VWS V14.01,2013-09-09 01:34:00,
2013-09-08 21:39:00,71.2,69.4,29.96,WNW,287,0.0,0.0,94,0.00,,FEW060,0.00,VWS V14.01,2013-09-09 01:39:00,
2013-09-08 21:44:00,71.1,69.6,29.96,WNW,287,0.0,0.0,95,0.00,,FEW060,0.00,VWS V14.01,2013-09-09 01:44:00,
2013-09-08 21:49:00,70.9,69.4,29.96,WNW,287,0.0,0.0,95,0.00,,FEW060,0.00,VWS V14.01,2013-09-09 01:49:00,
2013-09-08 21:54:00,70.8,69.3,29.96,WNW,287,0.0,0.0,95,0.00,,FEW060,0.00,VWS V14.01,2013-09-09 01:54:00,
2013-09-08 21:59:00,70.7,68.9,29.96,WNW,287,0.0,0.0,94,0.00,,FEW060,0.00,VWS V14.01,2013-09-09 01:59:00,
2013-09-08 22:00:00,70.7,68.9,29.96,WNW,287,0.0,0.0,94,0.00,,BKN038,0.00,VWS V14.01,2013-09-09 02:00:00,
2013-09-08 22:04:00,70.5,69.0,29.97,WNW,287,0.0,0.0,95,0.00,,FEW060,0.00,VWS V14.01,2013-09-09 02:04:00,
2013-09-08 22:09:00,70.5,69.0,29.97,WNW,287,0.0,0.0,95,0.00,,FEW060,0.00,VWS V14.01,2013-09-09 02:09:00,
2013-09-08 22:14:00,70.4,68.9,29.97,WNW,287,0.0,0.0,95,0.00,,FEW060,0.00,VWS V14.01,2013-09-09 02:14:00,
2013-09-08 22:19:00,70.2,68.7,29.97,WNW,287,0.0,0.0,95,0.00,,FEW060,0.00,VWS V14.01,2013-09-09 02:19:00,
2013-09-08 22:24:00,70.1,68.6,29.97,WNW,287,0.0,0.0,95,0.00,,FEW060,0.00,VWS V14.01,2013-09-09 02:24:00,
2013-09-08 22:29:00,70.0,68.5,29.97,WNW,287,0.0,0.0,95,0.00,,FEW060,0.00,VWS V14.01,2013-09-09 02:29:00,
2013-09-08 22:30:00,69.9,68.4,29.97,WNW,287,0.0,0.0,95,0.00,,BKN038,0.00,VWS V14.01,2013-09-09 02:30:00,
2013-09-08 22:34:00,69.8,68.3,29.97,WNW,287,0.0,0.0,95,0.00,,FEW060,0.00,VWS V14.01,2013-09-09 02:34:00,
2013-09-08 22:39:00,69.7,68.2,29.97,WNW,287,0.0,0.0,95,0.00,,CLR,0.00,VWS V14.01,2013-09-09 02:39:00,
2013-09-08 22:44:00,69.6,68.1,29.98,WNW,287,0.0,0.0,95,0.00,,CLR,0.00,VWS V14.01,2013-09-09 02:44:00,
2013-09-08 22:49:00,69.4,67.9,29.98,WNW,287,0.0,0.0,95,0.00,,CLR,0.00,VWS V14.01,2013-09-09 02:49:00,
2013-09-08 22:54:00,69.3,67.8,29.98,WNW,287,0.0,0.0,95,0.00,,CLR,0.00,VWS V14.01,2013-09-09 02:54:00,
2013-09-08 22:59:00,69.1,67.6,29.98,WNW,287,0.0,0.0,95,0.00,,CLR,0.00,VWS V14.01,2013-09-09 02:59:00,
2013-09-08 23:00:00,69.1,67.6,29.98,WNW,287,0.0,0.0,95,0.00,,BKN038,0.00,VWS V14.01,2013-09-09 03:00:00,
2013-09-08 23:04:00,69.0,67.5,29.98,WNW,287,0.0,0.0,95,0.00,,CLR,0.00,VWS V14.01,2013-09-09 03:04:00,
2013-09-08 23:09:00,68.9,67.4,29.98,WNW,287,0.0,0.0,95,0.00,,CLR,0.00,VWS V14.01,2013-09-09 03:09:00,
2013-09-08 23:14:00,68.7,67.2,29.98,WNW,287,0.0,0.0,95,0.00,,CLR,0.00,VWS V14.01,2013-09-09 03:14:00,
2013-09-08 23:19:00,68.7,67.2,29.99,WNW,287,0.0,0.0,95,0.00,,CLR,0.00,VWS V14.01,2013-09-09 03:19:00,
2013-09-08 23:24:00,68.5,67.0,29.99,WNW,287,0.0,0.0,95,0.00,,CLR,0.00,VWS V14.01,2013-09-09 03:24:00,
2013-09-08 23:29:00,68.5,67.0,29.99,WNW,291,0.0,0.0,95,0.00,,CLR,0.00,VWS V14.01,2013-09-09 03:29:00,
2013-09-08 23:30:00,68.4,66.9,29.99,WNW,291,0.0,0.0,95,0.00,,BKN038,0.00,VWS V14.01,2013-09-09 03:30:00,
2013-09-08 23:34:00,68.3,66.8,29.99,WNW,291,0.0,0.0,95,0.00,,CLR,0.00,VWS V14.01,2013-09-09 03:34:00,
2013-09-08 23:39:00,68.2,66.7,29.99,WNW,291,0.0,0.0,95,0.00,,CLR,0.00,VWS V14.01,2013-09-09 03:39:00,
2013-09-08 23:44:00,68.1,66.6,29.99,WNW,291,0.0,0.0,95,0.00,,CLR,0.00,VWS V14.01,2013-09-09 03:44:00,
2013-09-08 23:49:00,68.0,66.5,29.99,WNW,291,0.0,0.0,95,0.00,,CLR,0.00,VWS V14.01,2013-09-09 03:49:00,
2013-09-08 23:54:00,68.0,66.5,29.99,WNW,291,0.0,0.0,95,0.00,,CLR,0.00,VWS V14.01,2013-09-09 03:54:00,
2013-09-08 23:59:00,67.9,66.4,29.99,WNW,291,0.0,0.0,95,0.00,,CLR,0.00,VWS V14.01,2013-09-09 03:59:00,